NC91 weather

Vidant Health Heliport
Greenville, North Carolina, United States

Public forecast

Using degrees Fahrenheit for public forecast. Weather courtesy of forecast.io.

Closest aviation weather report (METAR) to Vidant Health Heliport

Closest report is Pitt Greenville Airport, 1.9 nm (3.5 km) NE. Retrieved 2020/05/25 10:35 UTC (0 seconds ago):

KPGV 251035Z AUTO 07006KT 10SM OVC005 16/14 A3017 RMK AO2

Closest aviation forecast (TAF) to Vidant Health Heliport

Closest forecast is Pitt Greenville Airport, 1.9 nm (3.5 km) NE. Retrieved 2020/05/25 06:36 UTC (4 hours ago):

TAF KPGV 250532Z 2506/2606 06005KT P6SM OVC007 FM251400 05005KT P6SM BKN015 FM252300 08004KT P6SM BKN045 FM260300 09004KT P6SM BKN020 AMD LTD TO CLD VIS AND WIND